sensor_id;sensor_type;location;lat;lon;timestamp;temperature;humidity
2010;DHT22;1008;47.404;8.502;2024-01-30T00:00:24;4.10;99.90
2010;DHT22;1008;47.404;8.502;2024-01-30T00:02:50;4.10;99.90
2010;DHT22;1008;47.404;8.502;2024-01-30T00:05:17;4.00;99.90
2010;DHT22;1008;47.404;8.502;2024-01-30T00:07:45;4.00;99.90
2010;DHT22;1008;47.404;8.502;2024-01-30T00:10:12;4.10;99.90
2010;DHT22;1008;47.404;8.502;2024-01-30T00:12:38;4.10;99.90
2010;DHT22;1008;47.404;8.502;2024-01-30T00:15:05;4.10;99.90
2010;DHT22;1008;47.404;8.502;2024-01-30T00:17:35;4.10;99.90
2010;DHT22;1008;47.404;8.502;2024-01-30T00:20:02;4.20;99.90
2010;DHT22;1008;47.404;8.502;2024-01-30T00:22:30;4.20;99.90
2010;DHT22;1008;47.404;8.502;2024-01-30T00:24:58;4.10;99.90
2010;DHT22;1008;47.404;8.502;2024-01-30T00:27:25;4.20;99.90
2010;DHT22;1008;47.404;8.502;2024-01-30T00:29:52;4.30;99.90
2010;DHT22;1008;47.404;8.502;2024-01-30T00:32:19;4.30;99.90
2010;DHT22;1008;47.404;8.502;2024-01-30T00:34:46;4.40;99.90
2010;DHT22;1008;47.404;8.502;2024-01-30T00:37:12;4.40;99.90
2010;DHT22;1008;47.404;8.502;2024-01-30T00:39:39;4.30;99.90
2010;DHT22;1008;47.404;8.502;2024-01-30T00:42:09;4.40;99.90
2010;DHT22;1008;47.404;8.502;2024-01-30T00:44:36;4.40;99.90
2010;DHT22;1008;47.404;8.502;2024-01-30T00:47:04;4.40;99.90
2010;DHT22;1008;47.404;8.502;2024-01-30T00:49:31;4.40;99.90
2010;DHT22;1008;47.404;8.502;2024-01-30T00:51:57;4.30;99.90
2010;DHT22;1008;47.404;8.502;2024-01-30T00:54:24;4.30;99.90
2010;DHT22;1008;47.404;8.502;2024-01-30T00:56:51;4.30;99.90
2010;DHT22;1008;47.404;8.502;2024-01-30T00:59:19;4.30;99.90
2010;DHT22;1008;47.404;8.502;2024-01-30T01:01:45;4.30;99.90
2010;DHT22;1008;47.404;8.502;2024-01-30T01:04:12;4.30;99.90
2010;DHT22;1008;47.404;8.502;2024-01-30T01:06:39;4.30;99.90
2010;DHT22;1008;47.404;8.502;2024-01-30T01:09:08;4.30;99.90
2010;DHT22;1008;47.404;8.502;2024-01-30T01:11:34;4.10;99.90
2010;DHT22;1008;47.404;8.502;2024-01-30T01:14:01;4.20;99.90
2010;DHT22;1008;47.404;8.502;2024-01-30T01:16:29;4.20;99.90
2010;DHT22;1008;47.404;8.502;2024-01-30T01:18:56;4.10;99.90
2010;DHT22;1008;47.404;8.502;2024-01-30T01:21:23;4.20;99.90
2010;DHT22;1008;47.404;8.502;2024-01-30T01:23:50;4.30;99.90
2010;DHT22;1008;47.404;8.502;2024-01-30T01:26:16;4.30;99.90
2010;DHT22;1008;47.404;8.502;2024-01-30T01:28:43;4.30;99.90
2010;DHT22;1008;47.404;8.502;2024-01-30T01:31:10;4.30;99.90
2010;DHT22;1008;47.404;8.502;2024-01-30T01:33:38;4.30;99.90
2010;DHT22;1008;47.404;8.502;2024-01-30T01:36:05;4.30;99.90
2010;DHT22;1008;47.404;8.502;2024-01-30T01:38:32;4.40;99.90
2010;DHT22;1008;47.404;8.502;2024-01-30T01:40:58;4.40;99.90
2010;DHT22;1008;47.404;8.502;2024-01-30T01:43:25;4.40;99.90
2010;DHT22;1008;47.404;8.502;2024-01-30T01:45:52;4.40;99.90
2010;DHT22;1008;47.404;8.502;2024-01-30T01:48:19;4.30;99.90
2010;DHT22;1008;47.404;8.502;2024-01-30T01:50:48;4.40;99.90
2010;DHT22;1008;47.404;8.502;2024-01-30T01:53:15;4.50;99.90
2010;DHT22;1008;47.404;8.502;2024-01-30T01:55:42;4.40;99.90
2010;DHT22;1008;47.404;8.502;2024-01-30T01:58:09;4.40;99.90
2010;DHT22;1008;47.404;8.502;2024-01-30T02:00:38;4.40;99.90
2010;DHT22;1008;47.404;8.502;2024-01-30T02:03:08;4.40;99.90
2010;DHT22;1008;47.404;8.502;2024-01-30T02:05:36;4.40;99.90
2010;DHT22;1008;47.404;8.502;2024-01-30T02:08:05;4.40;99.90
2010;DHT22;1008;47.404;8.502;2024-01-30T02:10:32;4.30;99.90
2010;DHT22;1008;47.404;8.502;2024-01-30T02:12:59;4.40;99.90
2010;DHT22;1008;47.404;8.502;2024-01-30T02:15:26;4.40;99.90
2010;DHT22;1008;47.404;8.502;2024-01-30T02:17:54;4.40;99.90
2010;DHT22;1008;47.404;8.502;2024-01-30T02:20:22;4.30;99.90
2010;DHT22;1008;47.404;8.502;2024-01-30T02:22:52;4.30;99.90
2010;DHT22;1008;47.404;8.502;2024-01-30T02:25:20;4.20;99.90
2010;DHT22;1008;47.404;8.502;2024-01-30T02:27:56;4.20;99.90
2010;DHT22;1008;47.404;8.502;2024-01-30T02:30:22;4.10;99.90
2010;DHT22;1008;47.404;8.502;2024-01-30T02:32:49;4.20;99.90
2010;DHT22;1008;47.404;8.502;2024-01-30T02:35:16;4.10;99.90
2010;DHT22;1008;47.404;8.502;2024-01-30T02:37:43;3.90;99.90
2010;DHT22;1008;47.404;8.502;2024-01-30T02:40:11;4.00;99.90
2010;DHT22;1008;47.404;8.502;2024-01-30T02:42:38;4.10;99.90
2010;DHT22;1008;47.404;8.502;2024-01-30T02:45:06;4.00;99.90
2010;DHT22;1008;47.404;8.502;2024-01-30T02:47:34;4.00;99.90
2010;DHT22;1008;47.404;8.502;2024-01-30T02:50:01;4.00;99.90
2010;DHT22;1008;47.404;8.502;2024-01-30T02:52:27;4.00;99.90
2010;DHT22;1008;47.404;8.502;2024-01-30T02:54:54;4.00;99.90
2010;DHT22;1008;47.404;8.502;2024-01-30T02:57:22;3.90;99.90
2010;DHT22;1008;47.404;8.502;2024-01-30T02:59:49;3.90;99.90
2010;DHT22;1008;47.404;8.502;2024-01-30T03:02:15;3.90;99.90
2010;DHT22;1008;47.404;8.502;2024-01-30T03:04:42;3.70;99.90
2010;DHT22;1008;47.404;8.502;2024-01-30T03:07:09;3.80;99.90
2010;DHT22;1008;47.404;8.502;2024-01-30T03:09:36;3.80;99.90
2010;DHT22;1008;47.404;8.502;2024-01-30T03:12:03;3.70;99.90
2010;DHT22;1008;47.404;8.502;2024-01-30T03:14:31;3.80;99.90
2010;DHT22;1008;47.404;8.502;2024-01-30T03:16:58;3.90;99.90
2010;DHT22;1008;47.404;8.502;2024-01-30T03:19:25;3.80;99.90
2010;DHT22;1008;47.404;8.502;2024-01-30T03:21:52;3.80;99.90
2010;DHT22;1008;47.404;8.502;2024-01-30T03:24:18;3.80;99.90
2010;DHT22;1008;47.404;8.502;2024-01-30T03:26:45;3.80;99.90
2010;DHT22;1008;47.404;8.502;2024-01-30T03:29:12;3.80;99.90
2010;DHT22;1008;47.404;8.502;2024-01-30T03:31:40;3.70;99.90
2010;DHT22;1008;47.404;8.502;2024-01-30T03:34:07;3.90;99.90
2010;DHT22;1008;47.404;8.502;2024-01-30T03:36:34;3.80;99.90
2010;DHT22;1008;47.404;8.502;2024-01-30T03:39:01;3.70;99.90
2010;DHT22;1008;47.404;8.502;2024-01-30T03:41:28;3.80;99.90
2010;DHT22;1008;47.404;8.502;2024-01-30T03:43:54;3.80;99.90
2010;DHT22;1008;47.404;8.502;2024-01-30T03:46:21;3.80;99.90
2010;DHT22;1008;47.404;8.502;2024-01-30T03:48:49;3.80;99.90
2010;DHT22;1008;47.404;8.502;2024-01-30T03:51:16;3.90;99.90
2010;DHT22;1008;47.404;8.502;2024-01-30T03:53:43;4.00;99.90
2010;DHT22;1008;47.404;8.502;2024-01-30T03:56:11;3.80;99.90
2010;DHT22;1008;47.404;8.502;2024-01-30T03:58:39;3.90;99.90
2010;DHT22;1008;47.404;8.502;2024-01-30T04:01:05;4.00;99.90
2010;DHT22;1008;47.404;8.502;2024-01-30T04:03:32;4.00;99.90
2010;DHT22;1008;47.404;8.502;2024-01-30T04:06:00;3.70;99.90
2010;DHT22;1008;47.404;8.502;2024-01-30T04:08:27;3.80;99.90
2010;DHT22;1008;47.404;8.502;2024-01-30T04:10:53;3.80;99.90
2010;DHT22;1008;47.404;8.502;2024-01-30T04:13:20;3.80;99.90
2010;DHT22;1008;47.404;8.502;2024-01-30T04:15:47;3.70;99.90
2010;DHT22;1008;47.404;8.502;2024-01-30T04:18:14;3.60;99.90
2010;DHT22;1008;47.404;8.502;2024-01-30T04:20:40;3.50;99.90
2010;DHT22;1008;47.404;8.502;2024-01-30T04:23:08;3.40;99.90
2010;DHT22;1008;47.404;8.502;2024-01-30T04:25:35;3.30;99.90
2010;DHT22;1008;47.404;8.502;2024-01-30T04:28:02;3.20;99.90
2010;DHT22;1008;47.404;8.502;2024-01-30T04:30:29;3.20;99.90
2010;DHT22;1008;47.404;8.502;2024-01-30T04:32:55;3.20;99.90
2010;DHT22;1008;47.404;8.502;2024-01-30T04:35:22;3.10;99.90
2010;DHT22;1008;47.404;8.502;2024-01-30T04:37:51;3.10;99.90
2010;DHT22;1008;47.404;8.502;2024-01-30T04:40:19;3.00;99.90
2010;DHT22;1008;47.404;8.502;2024-01-30T04:42:46;3.00;99.90
2010;DHT22;1008;47.404;8.502;2024-01-30T04:45:13;2.90;99.90
2010;DHT22;1008;47.404;8.502;2024-01-30T04:47:40;2.90;99.90
2010;DHT22;1008;47.404;8.502;2024-01-30T04:50:07;2.90;99.90
2010;DHT22;1008;47.404;8.502;2024-01-30T04:52:35;3.00;99.90
2010;DHT22;1008;47.404;8.502;2024-01-30T04:55:02;3.00;99.90
2010;DHT22;1008;47.404;8.502;2024-01-30T04:57:30;2.90;99.90
2010;DHT22;1008;47.404;8.502;2024-01-30T04:59:59;2.90;99.90
2010;DHT22;1008;47.404;8.502;2024-01-30T05:02:26;2.90;99.90
2010;DHT22;1008;47.404;8.502;2024-01-30T05:04:53;2.90;99.90
2010;DHT22;1008;47.404;8.502;2024-01-30T05:07:20;2.80;99.90
2010;DHT22;1008;47.404;8.502;2024-01-30T05:09:47;2.80;99.90
2010;DHT22;1008;47.404;8.502;2024-01-30T05:12:13;2.70;99.90
2010;DHT22;1008;47.404;8.502;2024-01-30T05:14:41;2.70;99.90
2010;DHT22;1008;47.404;8.502;2024-01-30T05:17:08;2.60;99.90
2010;DHT22;1008;47.404;8.502;2024-01-30T05:19:35;2.50;99.90
2010;DHT22;1008;47.404;8.502;2024-01-30T05:22:02;2.50;99.90
2010;DHT22;1008;47.404;8.502;2024-01-30T05:24:29;2.50;99.90
2010;DHT22;1008;47.404;8.502;2024-01-30T05:26:55;2.40;99.90
2010;DHT22;1008;47.404;8.502;2024-01-30T05:29:22;2.30;99.90
2010;DHT22;1008;47.404;8.502;2024-01-30T05:31:50;2.30;99.90
2010;DHT22;1008;47.404;8.502;2024-01-30T05:34:17;2.30;99.90
2010;DHT22;1008;47.404;8.502;2024-01-30T05:36:44;2.30;99.90
2010;DHT22;1008;47.404;8.502;2024-01-30T05:39:10;2.30;99.90
2010;DHT22;1008;47.404;8.502;2024-01-30T05:41:37;2.30;99.90
2010;DHT22;1008;47.404;8.502;2024-01-30T05:44:04;2.30;99.90
2010;DHT22;1008;47.404;8.502;2024-01-30T05:46:31;2.30;99.90
2010;DHT22;1008;47.404;8.502;2024-01-30T05:48:59;2.30;99.90
2010;DHT22;1008;47.404;8.502;2024-01-30T05:51:25;2.30;99.90
2010;DHT22;1008;47.404;8.502;2024-01-30T05:53:53;2.30;99.90
2010;DHT22;1008;47.404;8.502;2024-01-30T05:56:20;2.40;99.90
2010;DHT22;1008;47.404;8.502;2024-01-30T05:58:46;2.40;99.90
2010;DHT22;1008;47.404;8.502;2024-01-30T06:01:13;2.40;99.90
2010;DHT22;1008;47.404;8.502;2024-01-30T06:03:40;2.40;99.90
2010;DHT22;1008;47.404;8.502;2024-01-30T06:06:10;2.40;99.90
2010;DHT22;1008;47.404;8.502;2024-01-30T06:08:36;2.40;99.90
2010;DHT22;1008;47.404;8.502;2024-01-30T06:11:03;2.60;99.90
2010;DHT22;1008;47.404;8.502;2024-01-30T06:13:30;2.60;99.90
2010;DHT22;1008;47.404;8.502;2024-01-30T06:15:57;2.60;99.90
2010;DHT22;1008;47.404;8.502;2024-01-30T06:18:24;2.60;99.90
2010;DHT22;1008;47.404;8.502;2024-01-30T06:20:52;2.70;99.90
2010;DHT22;1008;47.404;8.502;2024-01-30T06:23:20;2.80;99.90
2010;DHT22;1008;47.404;8.502;2024-01-30T06:25:47;2.80;99.90
2010;DHT22;1008;47.404;8.502;2024-01-30T06:28:14;2.90;99.90
2010;DHT22;1008;47.404;8.502;2024-01-30T06:30:40;3.00;99.90
2010;DHT22;1008;47.404;8.502;2024-01-30T06:33:07;3.10;99.90
2010;DHT22;1008;47.404;8.502;2024-01-30T06:35:34;3.10;99.90
2010;DHT22;1008;47.404;8.502;2024-01-30T06:38:05;3.10;99.90
2010;DHT22;1008;47.404;8.502;2024-01-30T06:40:33;3.20;99.90
2010;DHT22;1008;47.404;8.502;2024-01-30T06:43:00;3.30;99.90
2010;DHT22;1008;47.404;8.502;2024-01-30T06:45:26;3.40;99.90
2010;DHT22;1008;47.404;8.502;2024-01-30T06:47:53;3.40;99.90
2010;DHT22;1008;47.404;8.502;2024-01-30T06:50:20;3.40;99.90
2010;DHT22;1008;47.404;8.502;2024-01-30T06:52:46;3.40;99.90
2010;DHT22;1008;47.404;8.502;2024-01-30T06:55:13;3.40;99.90
2010;DHT22;1008;47.404;8.502;2024-01-30T06:57:41;3.40;99.90
2010;DHT22;1008;47.404;8.502;2024-01-30T07:00:09;3.40;99.90
2010;DHT22;1008;47.404;8.502;2024-01-30T07:02:36;3.40;99.90
2010;DHT22;1008;47.404;8.502;2024-01-30T07:05:03;3.40;99.90
2010;DHT22;1008;47.404;8.502;2024-01-30T07:07:30;3.40;99.90
2010;DHT22;1008;47.404;8.502;2024-01-30T07:09:56;3.50;99.90
2010;DHT22;1008;47.404;8.502;2024-01-30T07:12:23;3.50;99.90
2010;DHT22;1008;47.404;8.502;2024-01-30T07:14:52;3.40;99.90
2010;DHT22;1008;47.404;8.502;2024-01-30T07:17:21;3.50;99.90
2010;DHT22;1008;47.404;8.502;2024-01-30T07:19:47;3.50;99.90
2010;DHT22;1008;47.404;8.502;2024-01-30T07:22:14;3.50;99.90
2010;DHT22;1008;47.404;8.502;2024-01-30T07:24:42;3.60;99.90
2010;DHT22;1008;47.404;8.502;2024-01-30T07:27:12;3.60;99.90
2010;DHT22;1008;47.404;8.502;2024-01-30T07:29:39;3.70;99.90
2010;DHT22;1008;47.404;8.502;2024-01-30T07:32:07;3.70;99.90
2010;DHT22;1008;47.404;8.502;2024-01-30T07:34:34;3.80;99.90
2010;DHT22;1008;47.404;8.502;2024-01-30T07:37:01;3.80;99.90
2010;DHT22;1008;47.404;8.502;2024-01-30T07:39:28;3.80;99.90
2010;DHT22;1008;47.404;8.502;2024-01-30T07:41:55;3.80;99.90
2010;DHT22;1008;47.404;8.502;2024-01-30T07:44:22;3.80;99.90
2010;DHT22;1008;47.404;8.502;2024-01-30T07:46:49;3.80;99.90
2010;DHT22;1008;47.404;8.502;2024-01-30T07:49:17;3.90;99.90
2010;DHT22;1008;47.404;8.502;2024-01-30T07:51:43;3.90;99.90
2010;DHT22;1008;47.404;8.502;2024-01-30T07:54:10;3.80;99.90
2010;DHT22;1008;47.404;8.502;2024-01-30T07:56:37;3.80;99.90
2010;DHT22;1008;47.404;8.502;2024-01-30T07:59:04;3.70;99.90
2010;DHT22;1008;47.404;8.502;2024-01-30T08:01:30;3.70;99.90
2010;DHT22;1008;47.404;8.502;2024-01-30T08:03:57;3.80;99.90
2010;DHT22;1008;47.404;8.502;2024-01-30T08:06:25;3.80;99.90
2010;DHT22;1008;47.404;8.502;2024-01-30T08:08:52;3.80;99.90
2010;DHT22;1008;47.404;8.502;2024-01-30T08:11:20;3.80;99.90
2010;DHT22;1008;47.404;8.502;2024-01-30T08:13:50;3.90;99.90
2010;DHT22;1008;47.404;8.502;2024-01-30T08:16:17;4.00;99.90
2010;DHT22;1008;47.404;8.502;2024-01-30T08:18:44;3.90;99.90
2010;DHT22;1008;47.404;8.502;2024-01-30T08:21:11;4.10;99.90
2010;DHT22;1008;47.404;8.502;2024-01-30T08:23:39;4.50;99.90
2010;DHT22;1008;47.404;8.502;2024-01-30T08:26:06;4.70;99.90
2010;DHT22;1008;47.404;8.502;2024-01-30T08:28:33;4.90;99.90
2010;DHT22;1008;47.404;8.502;2024-01-30T08:31:00;4.60;99.90
2010;DHT22;1008;47.404;8.502;2024-01-30T08:33:26;4.80;99.90
2010;DHT22;1008;47.404;8.502;2024-01-30T08:35:54;5.10;99.90
2010;DHT22;1008;47.404;8.502;2024-01-30T08:38:20;5.30;99.90
2010;DHT22;1008;47.404;8.502;2024-01-30T08:40:48;5.40;99.90
2010;DHT22;1008;47.404;8.502;2024-01-30T08:43:15;5.60;99.90
2010;DHT22;1008;47.404;8.502;2024-01-30T08:45:42;5.60;99.90
2010;DHT22;1008;47.404;8.502;2024-01-30T08:48:08;5.70;99.90
2010;DHT22;1008;47.404;8.502;2024-01-30T08:50:35;5.80;99.90
2010;DHT22;1008;47.404;8.502;2024-01-30T08:53:02;6.00;99.90
2010;DHT22;1008;47.404;8.502;2024-01-30T08:55:29;5.80;99.90
2010;DHT22;1008;47.404;8.502;2024-01-30T08:57:57;6.10;99.90
2010;DHT22;1008;47.404;8.502;2024-01-30T09:00:24;6.30;99.90
2010;DHT22;1008;47.404;8.502;2024-01-30T09:02:51;6.40;99.90
2010;DHT22;1008;47.404;8.502;2024-01-30T09:05:17;6.40;99.90
2010;DHT22;1008;47.404;8.502;2024-01-30T09:07:44;6.50;99.90
2010;DHT22;1008;47.404;8.502;2024-01-30T09:10:11;6.70;99.90
2010;DHT22;1008;47.404;8.502;2024-01-30T09:12:38;6.80;99.90
2010;DHT22;1008;47.404;8.502;2024-01-30T09:15:07;6.90;99.90
2010;DHT22;1008;47.404;8.502;2024-01-30T09:17:34;7.10;99.90
2010;DHT22;1008;47.404;8.502;2024-01-30T09:20:00;7.20;99.90
2010;DHT22;1008;47.404;8.502;2024-01-30T09:22:27;7.30;99.90
2010;DHT22;1008;47.404;8.502;2024-01-30T09:24:54;7.40;99.90
2010;DHT22;1008;47.404;8.502;2024-01-30T09:27:20;7.60;99.90
2010;DHT22;1008;47.404;8.502;2024-01-30T09:29:47;7.70;99.90
2010;DHT22;1008;47.404;8.502;2024-01-30T09:32:15;7.90;99.90
2010;DHT22;1008;47.404;8.502;2024-01-30T09:34:43;8.40;99.90
2010;DHT22;1008;47.404;8.502;2024-01-30T09:37:09;8.70;99.90
2010;DHT22;1008;47.404;8.502;2024-01-30T09:39:36;9.00;99.90
2010;DHT22;1008;47.404;8.502;2024-01-30T09:42:07;8.90;99.90
2010;DHT22;1008;47.404;8.502;2024-01-30T09:44:38;9.10;99.90
2010;DHT22;1008;47.404;8.502;2024-01-30T09:47:07;9.50;99.90
2010;DHT22;1008;47.404;8.502;2024-01-30T09:49:35;9.50;99.90
2010;DHT22;1008;47.404;8.502;2024-01-30T09:52:04;9.50;99.90
2010;DHT22;1008;47.404;8.502;2024-01-30T09:54:31;9.90;99.90
2010;DHT22;1008;47.404;8.502;2024-01-30T09:56:59;10.10;99.90
2010;DHT22;1008;47.404;8.502;2024-01-30T09:59:25;10.40;99.90
2010;DHT22;1008;47.404;8.502;2024-01-30T10:01:52;10.10;99.90
2010;DHT22;1008;47.404;8.502;2024-01-30T10:04:19;10.60;99.90
2010;DHT22;1008;47.404;8.502;2024-01-30T10:06:47;10.90;99.90
2010;DHT22;1008;47.404;8.502;2024-01-30T10:09:14;10.60;99.90
2010;DHT22;1008;47.404;8.502;2024-01-30T10:11:41;10.50;99.90
2010;DHT22;1008;47.404;8.502;2024-01-30T10:14:08;10.20;99.90
2010;DHT22;1008;47.404;8.502;2024-01-30T10:16:34;10.60;99.90
2010;DHT22;1008;47.404;8.502;2024-01-30T10:19:01;10.90;99.90
2010;DHT22;1008;47.404;8.502;2024-01-30T10:21:29;11.30;99.90
2010;DHT22;1008;47.404;8.502;2024-01-30T10:23:57;11.40;99.90
2010;DHT22;1008;47.404;8.502;2024-01-30T10:26:24;11.60;99.90
2010;DHT22;1008;47.404;8.502;2024-01-30T10:28:50;11.80;99.90
2010;DHT22;1008;47.404;8.502;2024-01-30T10:31:17;11.80;99.90
2010;DHT22;1008;47.404;8.502;2024-01-30T10:33:44;11.80;99.90
2010;DHT22;1008;47.404;8.502;2024-01-30T10:36:13;12.00;99.90
2010;DHT22;1008;47.404;8.502;2024-01-30T10:38:42;11.80;99.90
2010;DHT22;1008;47.404;8.502;2024-01-30T10:41:11;11.70;99.90
2010;DHT22;1008;47.404;8.502;2024-01-30T10:43:41;11.60;99.90
2010;DHT22;1008;47.404;8.502;2024-01-30T10:46:11;11.80;99.90
2010;DHT22;1008;47.404;8.502;2024-01-30T10:48:42;11.70;99.90
2010;DHT22;1008;47.404;8.502;2024-01-30T10:51:11;11.80;99.90
2010;DHT22;1008;47.404;8.502;2024-01-30T10:53:38;11.90;98.90
2010;DHT22;1008;47.404;8.502;2024-01-30T10:56:06;12.00;99.00
2010;DHT22;1008;47.404;8.502;2024-01-30T10:58:34;12.10;99.80
2010;DHT22;1008;47.404;8.502;2024-01-30T11:01:01;11.80;98.50
2010;DHT22;1008;47.404;8.502;2024-01-30T11:03:29;11.90;99.00
2010;DHT22;1008;47.404;8.502;2024-01-30T11:05:59;11.80;99.00
2010;DHT22;1008;47.404;8.502;2024-01-30T11:08:26;11.90;99.30
2010;DHT22;1008;47.404;8.502;2024-01-30T11:10:56;12.40;99.10
2010;DHT22;1008;47.404;8.502;2024-01-30T11:13:27;12.40;98.00
2010;DHT22;1008;47.404;8.502;2024-01-30T11:15:55;12.40;96.90
2010;DHT22;1008;47.404;8.502;2024-01-30T11:18:27;12.10;97.70
2010;DHT22;1008;47.404;8.502;2024-01-30T11:20:56;12.40;98.60
2010;DHT22;1008;47.404;8.502;2024-01-30T11:23:23;12.60;97.60
2010;DHT22;1008;47.404;8.502;2024-01-30T11:25:52;12.70;96.50
2010;DHT22;1008;47.404;8.502;2024-01-30T11:28:21;12.50;96.70
2010;DHT22;1008;47.404;8.502;2024-01-30T11:30:48;12.40;97.10
2010;DHT22;1008;47.404;8.502;2024-01-30T11:33:29;12.40;97.10
2010;DHT22;1008;47.404;8.502;2024-01-30T11:35:57;12.50;97.00
2010;DHT22;1008;47.404;8.502;2024-01-30T11:38:26;12.50;96.10
2010;DHT22;1008;47.404;8.502;2024-01-30T11:40:54;12.20;96.40
2010;DHT22;1008;47.404;8.502;2024-01-30T11:43:21;12.20;96.70
2010;DHT22;1008;47.404;8.502;2024-01-30T11:45:49;12.20;96.60
2010;DHT22;1008;47.404;8.502;2024-01-30T11:48:17;12.60;96.10
2010;DHT22;1008;47.404;8.502;2024-01-30T11:50:44;12.60;96.20
2010;DHT22;1008;47.404;8.502;2024-01-30T11:53:11;12.60;95.30
2010;DHT22;1008;47.404;8.502;2024-01-30T11:55:38;13.00;95.10
2010;DHT22;1008;47.404;8.502;2024-01-30T11:58:05;13.50;95.70
2010;DHT22;1008;47.404;8.502;2024-01-30T12:00:31;13.90;93.50
2010;DHT22;1008;47.404;8.502;2024-01-30T12:02:59;14.20;92.80
2010;DHT22;1008;47.404;8.502;2024-01-30T12:05:28;14.60;92.40
2010;DHT22;1008;47.404;8.502;2024-01-30T12:07:55;14.90;90.90
2010;DHT22;1008;47.404;8.502;2024-01-30T12:10:24;15.40;90.80
2010;DHT22;1008;47.404;8.502;2024-01-30T12:12:51;15.30;90.20
2010;DHT22;1008;47.404;8.502;2024-01-30T12:15:20;15.70;88.00
2010;DHT22;1008;47.404;8.502;2024-01-30T12:17:48;15.30;86.40
2010;DHT22;1008;47.404;8.502;2024-01-30T12:20:17;15.60;88.10
2010;DHT22;1008;47.404;8.502;2024-01-30T12:22:47;15.30;86.10
2010;DHT22;1008;47.404;8.502;2024-01-30T12:25:14;15.50;87.70
2010;DHT22;1008;47.404;8.502;2024-01-30T12:27:43;15.50;86.20
2010;DHT22;1008;47.404;8.502;2024-01-30T12:30:11;15.00;86.20
2010;DHT22;1008;47.404;8.502;2024-01-30T12:32:41;14.70;87.40
2010;DHT22;1008;47.404;8.502;2024-01-30T12:35:10;15.10;89.60
2010;DHT22;1008;47.404;8.502;2024-01-30T12:37:37;14.70;87.30
2010;DHT22;1008;47.404;8.502;2024-01-30T12:40:06;14.10;88.30
2010;DHT22;1008;47.404;8.502;2024-01-30T12:42:33;14.00;90.40
2010;DHT22;1008;47.404;8.502;2024-01-30T12:45:02;14.00;90.30
2010;DHT22;1008;47.404;8.502;2024-01-30T12:47:28;13.70;90.70
2010;DHT22;1008;47.404;8.502;2024-01-30T12:49:55;13.90;91.40
2010;DHT22;1008;47.404;8.502;2024-01-30T12:52:22;14.20;91.20
2010;DHT22;1008;47.404;8.502;2024-01-30T12:54:49;14.70;91.00
2010;DHT22;1008;47.404;8.502;2024-01-30T12:57:18;14.60;90.70
2010;DHT22;1008;47.404;8.502;2024-01-30T12:59:45;15.00;88.90
2010;DHT22;1008;47.404;8.502;2024-01-30T13:02:12;14.70;88.00
2010;DHT22;1008;47.404;8.502;2024-01-30T13:04:39;14.20;89.60
2010;DHT22;1008;47.404;8.502;2024-01-30T13:07:06;14.20;90.70
2010;DHT22;1008;47.404;8.502;2024-01-30T13:09:33;14.00;90.40
2010;DHT22;1008;47.404;8.502;2024-01-30T13:11:59;14.20;90.70
2010;DHT22;1008;47.404;8.502;2024-01-30T13:14:27;14.30;90.50
2010;DHT22;1008;47.404;8.502;2024-01-30T13:16:54;14.50;90.30
2010;DHT22;1008;47.404;8.502;2024-01-30T13:19:21;14.50;90.00
2010;DHT22;1008;47.404;8.502;2024-01-30T13:21:48;14.10;89.30
2010;DHT22;1008;47.404;8.502;2024-01-30T13:24:14;13.90;89.40
2010;DHT22;1008;47.404;8.502;2024-01-30T13:26:42;13.90;90.90
2010;DHT22;1008;47.404;8.502;2024-01-30T13:29:09;13.80;90.90
2010;DHT22;1008;47.404;8.502;2024-01-30T13:31:37;13.70;90.70
2010;DHT22;1008;47.404;8.502;2024-01-30T13:34:04;13.40;90.90
2010;DHT22;1008;47.404;8.502;2024-01-30T13:36:32;13.20;91.80
2010;DHT22;1008;47.404;8.502;2024-01-30T13:38:59;13.10;91.40
2010;DHT22;1008;47.404;8.502;2024-01-30T13:41:26;13.30;91.60
2010;DHT22;1008;47.404;8.502;2024-01-30T13:43:52;13.40;91.50
2010;DHT22;1008;47.404;8.502;2024-01-30T13:46:19;13.30;91.70
2010;DHT22;1008;47.404;8.502;2024-01-30T13:48:47;12.90;91.90
2010;DHT22;1008;47.404;8.502;2024-01-30T13:51:14;12.80;92.30
2010;DHT22;1008;47.404;8.502;2024-01-30T13:53:42;12.80;92.20
2010;DHT22;1008;47.404;8.502;2024-01-30T13:56:09;12.60;92.20
2010;DHT22;1008;47.404;8.502;2024-01-30T13:58:36;12.50;92.40
2010;DHT22;1008;47.404;8.502;2024-01-30T14:01:03;12.60;92.60
2010;DHT22;1008;47.404;8.502;2024-01-30T14:03:30;12.60;92.70
2010;DHT22;1008;47.404;8.502;2024-01-30T14:05:58;12.50;92.70
2010;DHT22;1008;47.404;8.502;2024-01-30T14:08:25;12.50;92.10
2010;DHT22;1008;47.404;8.502;2024-01-30T14:10:53;12.50;92.90
2010;DHT22;1008;47.404;8.502;2024-01-30T14:13:20;12.50;93.20
2010;DHT22;1008;47.404;8.502;2024-01-30T14:15:48;12.40;93.10
2010;DHT22;1008;47.404;8.502;2024-01-30T14:18:14;12.30;93.70
2010;DHT22;1008;47.404;8.502;2024-01-30T14:20:42;12.20;93.80
2010;DHT22;1008;47.404;8.502;2024-01-30T14:23:10;12.20;94.30
2010;DHT22;1008;47.404;8.502;2024-01-30T14:25:37;12.20;94.60
2010;DHT22;1008;47.404;8.502;2024-01-30T14:28:04;12.10;94.50
2010;DHT22;1008;47.404;8.502;2024-01-30T14:30:30;12.20;95.30
2010;DHT22;1008;47.404;8.502;2024-01-30T14:32:57;12.10;94.80
2010;DHT22;1008;47.404;8.502;2024-01-30T14:35:24;12.20;95.80
2010;DHT22;1008;47.404;8.502;2024-01-30T14:37:51;12.10;95.20
2010;DHT22;1008;47.404;8.502;2024-01-30T14:40:20;12.10;95.30
2010;DHT22;1008;47.404;8.502;2024-01-30T14:42:47;12.00;95.30
2010;DHT22;1008;47.404;8.502;2024-01-30T14:45:13;11.90;95.40
2010;DHT22;1008;47.404;8.502;2024-01-30T14:47:41;11.70;95.50
2010;DHT22;1008;47.404;8.502;2024-01-30T14:50:08;11.60;96.10
2010;DHT22;1008;47.404;8.502;2024-01-30T14:52:35;11.50;95.80
2010;DHT22;1008;47.404;8.502;2024-01-30T14:55:02;11.50;96.30
2010;DHT22;1008;47.404;8.502;2024-01-30T14:57:30;11.60;96.70
2010;DHT22;1008;47.404;8.502;2024-01-30T14:59:57;11.70;96.80
2010;DHT22;1008;47.404;8.502;2024-01-30T15:02:24;11.70;96.50
2010;DHT22;1008;47.404;8.502;2024-01-30T15:04:50;11.50;96.90
2010;DHT22;1008;47.404;8.502;2024-01-30T15:07:17;11.60;97.40
2010;DHT22;1008;47.404;8.502;2024-01-30T15:09:44;11.70;98.00
2010;DHT22;1008;47.404;8.502;2024-01-30T15:12:11;11.50;97.60
2010;DHT22;1008;47.404;8.502;2024-01-30T15:14:39;11.50;98.00
2010;DHT22;1008;47.404;8.502;2024-01-30T15:17:05;11.40;98.50
2010;DHT22;1008;47.404;8.502;2024-01-30T15:19:32;11.40;98.80
2010;DHT22;1008;47.404;8.502;2024-01-30T15:21:59;11.40;99.20
2010;DHT22;1008;47.404;8.502;2024-01-30T15:24:25;11.40;99.40
2010;DHT22;1008;47.404;8.502;2024-01-30T15:26:52;11.40;99.60
2010;DHT22;1008;47.404;8.502;2024-01-30T15:29:19;11.60;99.90
2010;DHT22;1008;47.404;8.502;2024-01-30T15:31:49;11.40;99.70
2010;DHT22;1008;47.404;8.502;2024-01-30T15:34:16;11.40;99.60
2010;DHT22;1008;47.404;8.502;2024-01-30T15:36:43;11.40;99.70
2010;DHT22;1008;47.404;8.502;2024-01-30T15:39:09;11.30;99.90
2010;DHT22;1008;47.404;8.502;2024-01-30T15:41:36;11.40;99.90
2010;DHT22;1008;47.404;8.502;2024-01-30T15:44:03;11.30;99.90
2010;DHT22;1008;47.404;8.502;2024-01-30T15:46:30;11.10;99.90
2010;DHT22;1008;47.404;8.502;2024-01-30T15:48:58;11.00;99.90
2010;DHT22;1008;47.404;8.502;2024-01-30T15:51:26;11.00;99.90
2010;DHT22;1008;47.404;8.502;2024-01-30T15:53:53;11.00;99.90
2010;DHT22;1008;47.404;8.502;2024-01-30T15:56:20;11.00;99.90
2010;DHT22;1008;47.404;8.502;2024-01-30T15:58:47;11.00;99.90
2010;DHT22;1008;47.404;8.502;2024-01-30T16:01:15;11.00;99.90
2010;DHT22;1008;47.404;8.502;2024-01-30T16:03:42;10.90;99.90
2010;DHT22;1008;47.404;8.502;2024-01-30T16:06:11;11.00;99.90
2010;DHT22;1008;47.404;8.502;2024-01-30T16:08:38;11.00;99.90
2010;DHT22;1008;47.404;8.502;2024-01-30T16:11:07;10.90;99.90